createdAt,value
2024-02-21T00:01:01.545Z,6.47
2024-02-21T00:03:31.592Z,6.80
2024-02-21T00:06:00.039Z,6.50
2024-02-21T00:08:28.522Z,7.22
2024-02-21T00:10:57.062Z,7.20
2024-02-21T00:13:25.629Z,6.85
2024-02-21T00:15:54.035Z,7.35
2024-02-21T00:18:23.768Z,7.15
2024-02-21T00:20:54.898Z,7.18
2024-02-21T00:23:23.260Z,6.13
2024-02-21T00:25:51.793Z,5.78
2024-02-21T00:28:20.297Z,6.10
2024-02-21T00:30:49.793Z,5.68
2024-02-21T00:33:18.231Z,6.53
2024-02-21T00:35:46.688Z,6.22
2024-02-21T00:38:16.503Z,6.53
2024-02-21T00:40:44.969Z,6.45
2024-02-21T00:43:13.466Z,7.90
2024-02-21T00:45:41.922Z,5.50
2024-02-21T00:48:10.435Z,7.05
2024-02-21T00:50:39.603Z,6.18
2024-02-21T00:53:08.054Z,6.45
2024-02-21T00:55:38.127Z,6.35
2024-02-21T00:58:06.541Z,6.68
2024-02-21T01:00:35.037Z,6.72
2024-02-21T01:03:03.463Z,6.80
2024-02-21T01:05:31.887Z,6.03
2024-02-21T01:08:00.338Z,5.32
2024-02-21T01:10:28.899Z,6.78
2024-02-21T01:12:58.842Z,5.70
2024-02-21T01:15:27.397Z,5.75
2024-02-21T01:17:56.729Z,5.55
2024-02-21T01:20:25.279Z,5.80
2024-02-21T01:22:53.874Z,6.20
2024-02-21T01:25:22.383Z,5.47
2024-02-21T01:27:50.820Z,5.68
2024-02-21T01:30:21.201Z,5.40
2024-02-21T01:32:49.593Z,5.22
2024-02-21T01:35:18.168Z,5.07
2024-02-21T01:37:46.824Z,4.35
2024-02-21T01:40:15.423Z,4.95
2024-02-21T01:42:43.868Z,4.43
2024-02-21T01:45:12.682Z,5.10
2024-02-21T01:47:42.849Z,4.78
2024-02-21T01:50:11.830Z,4.40
2024-02-21T01:52:40.738Z,4.25
2024-02-21T01:55:10.427Z,4.88
2024-02-21T01:57:39.153Z,4.97
2024-02-21T02:00:08.171Z,4.53
2024-02-21T02:02:36.582Z,4.38
2024-02-21T02:05:07.598Z,4.22
2024-02-21T02:07:36.185Z,5.03
2024-02-21T02:10:04.687Z,5.63
2024-02-21T02:12:33.074Z,6.38
2024-02-21T02:15:01.875Z,7.20
2024-02-21T02:17:30.334Z,5.72
2024-02-21T02:19:59.052Z,8.73
2024-02-21T02:22:31.640Z,7.05
2024-02-21T02:25:01.606Z,7.72
2024-02-21T02:27:30.030Z,6.90
2024-02-21T02:29:58.469Z,7.72
2024-02-21T02:32:26.957Z,7.30
2024-02-21T02:34:56.688Z,6.78
2024-02-21T02:37:25.133Z,7.90
2024-02-21T02:39:53.860Z,7.30
2024-02-21T02:42:23.673Z,6.85
2024-02-21T02:44:52.105Z,7.28
2024-02-21T02:47:20.724Z,7.78
2024-02-21T02:49:51.999Z,7.78
2024-02-21T02:52:21.086Z,6.38
2024-02-21T02:54:53.272Z,7.03
2024-02-21T02:57:23.055Z,7.60
2024-02-21T02:59:51.630Z,6.93
2024-02-21T03:02:20.338Z,6.75
2024-02-21T03:04:48.797Z,6.93
2024-02-21T03:07:17.468Z,6.82
2024-02-21T03:09:45.938Z,6.68
2024-02-21T03:12:20.163Z,6.78
2024-02-21T03:14:49.978Z,6.95
2024-02-21T03:17:18.389Z,7.28
2024-02-21T03:19:46.875Z,7.05
2024-02-21T03:22:15.338Z,6.47
2024-02-21T03:24:43.757Z,7.20
2024-02-21T03:27:12.182Z,7.60
2024-02-21T03:29:40.614Z,7.38
2024-02-21T03:32:10.763Z,7.45
2024-02-21T03:34:39.204Z,6.47
2024-02-21T03:37:07.672Z,6.10
2024-02-21T03:39:36.293Z,6.32
2024-02-21T03:42:05.944Z,6.88
2024-02-21T03:44:34.383Z,6.35
2024-02-21T03:47:03.151Z,6.72
2024-02-21T03:49:33.030Z,5.82
2024-02-21T03:52:01.562Z,5.97
2024-02-21T03:54:30.084Z,6.35
2024-02-21T03:56:58.755Z,5.85
2024-02-21T03:59:27.191Z,6.40
2024-02-21T04:01:55.788Z,5.63
2024-02-21T04:04:24.347Z,7.13
2024-02-21T04:06:54.173Z,6.22
2024-02-21T04:09:22.584Z,5.97
2024-02-21T04:11:51.152Z,6.45
2024-02-21T04:14:19.721Z,6.28
2024-02-21T04:16:48.138Z,6.05
2024-02-21T04:19:16.722Z,5.95
2024-02-21T04:21:45.838Z,8.60
2024-02-21T04:24:15.704Z,6.85
2024-02-21T04:26:44.806Z,5.55
2024-02-21T04:29:14.182Z,6.90
2024-02-21T04:31:43.143Z,6.95
2024-02-21T04:34:11.636Z,7.20
2024-02-21T04:36:40.051Z,7.03
2024-02-21T04:39:08.459Z,6.28
2024-02-21T04:41:38.223Z,7.90
2024-02-21T04:44:06.862Z,7.65
2024-02-21T04:46:35.330Z,7.97
2024-02-21T04:49:03.790Z,8.45
2024-02-21T04:51:33.278Z,8.27
2024-02-21T04:54:02.639Z,7.22
2024-02-21T04:56:31.071Z,7.25
2024-02-21T04:59:00.913Z,7.57
2024-02-21T05:01:31.055Z,7.13
2024-02-21T05:04:01.183Z,7.68
2024-02-21T05:06:29.642Z,6.75
2024-02-21T05:08:58.987Z,7.15
2024-02-21T05:11:27.440Z,6.78
2024-02-21T05:13:57.116Z,6.28
2024-02-21T05:16:27.040Z,6.40
2024-02-21T05:18:55.530Z,6.70
2024-02-21T05:21:24.802Z,6.63
2024-02-21T05:23:53.237Z,8.40
2024-02-21T05:26:24.889Z,7.68
2024-02-21T05:28:55.360Z,7.80
2024-02-21T05:31:23.911Z,7.85
2024-02-21T05:33:53.825Z,7.90
2024-02-21T05:36:22.273Z,6.65
2024-02-21T05:38:50.688Z,7.85
2024-02-21T05:41:19.215Z,7.28
2024-02-21T05:43:47.650Z,7.20
2024-02-21T05:46:16.155Z,7.00
2024-02-21T05:48:44.697Z,6.47
2024-02-21T05:51:14.509Z,8.10
2024-02-21T05:53:43.413Z,7.35
2024-02-21T05:56:13.305Z,7.40
2024-02-21T05:58:41.815Z,7.07
2024-02-21T06:01:10.316Z,6.13
2024-02-21T06:03:38.766Z,6.43
2024-02-21T06:06:07.570Z,6.55
2024-02-21T06:08:37.406Z,6.10
2024-02-21T06:11:06.025Z,6.20
2024-02-21T06:13:34.510Z,7.03
2024-02-21T06:16:03.116Z,6.72
2024-02-21T06:18:31.670Z,5.97
2024-02-21T06:21:00.162Z,6.53
2024-02-21T06:23:28.590Z,6.38
2024-02-21T06:25:58.537Z,6.57
2024-02-21T06:28:27.160Z,5.78
2024-02-21T06:30:55.582Z,6.13
2024-02-21T06:33:26.015Z,5.35
2024-02-21T06:35:55.146Z,6.15
2024-02-21T06:38:23.655Z,5.78
2024-02-21T06:40:53.542Z,5.70
2024-02-21T06:43:23.831Z,4.97
2024-02-21T06:45:52.794Z,4.28
2024-02-21T06:48:21.601Z,4.55
2024-02-21T06:50:50.071Z,5.18
2024-02-21T06:53:18.483Z,5.65
2024-02-21T06:55:46.972Z,4.80
2024-02-21T06:58:16.829Z,4.88
2024-02-21T07:00:46.742Z,5.00
2024-02-21T07:03:15.219Z,4.90
2024-02-21T07:05:43.903Z,4.82
2024-02-21T07:08:12.590Z,4.80
2024-02-21T07:10:41.105Z,4.93
2024-02-21T07:13:09.679Z,4.20
2024-02-21T07:15:38.932Z,4.35
2024-02-21T07:18:08.836Z,4.50
2024-02-21T07:20:38.516Z,4.55
2024-02-21T07:23:07.016Z,5.32
2024-02-21T07:25:35.630Z,4.30
2024-02-21T07:28:04.103Z,4.80
2024-02-21T07:30:32.591Z,4.43
2024-02-21T07:33:01.132Z,4.80
2024-02-21T07:35:31.008Z,5.43
2024-02-21T07:37:59.472Z,4.32
2024-02-21T07:40:28.059Z,5.18
2024-02-21T07:42:56.537Z,4.78
2024-02-21T07:45:25.721Z,5.40
2024-02-21T07:47:54.189Z,4.70
2024-02-21T07:50:22.799Z,4.60
2024-02-21T07:52:52.638Z,4.40
2024-02-21T07:55:21.252Z,6.60
2024-02-21T07:57:50.721Z,5.50
2024-02-21T08:00:21.301Z,5.15
2024-02-21T08:02:50.730Z,5.95
2024-02-21T08:05:19.286Z,6.20
2024-02-21T08:07:47.830Z,6.18
2024-02-21T08:10:17.677Z,7.40
2024-02-21T08:12:46.133Z,5.78
2024-02-21T08:15:14.522Z,6.30
2024-02-21T08:17:42.990Z,6.90
2024-02-21T08:20:12.239Z,7.65
2024-02-21T08:22:40.875Z,6.75
2024-02-21T08:25:09.431Z,6.50
2024-02-21T08:27:40.424Z,7.05
2024-02-21T08:30:09.510Z,5.53
2024-02-21T08:32:38.060Z,5.70
2024-02-21T08:35:07.346Z,7.40
2024-02-21T08:37:35.893Z,5.75
2024-02-21T08:40:10.024Z,6.53
2024-02-21T08:42:41.790Z,5.70
2024-02-21T08:45:10.961Z,6.78
2024-02-21T08:47:39.490Z,5.80
2024-02-21T08:50:15.267Z,6.45
2024-02-21T08:52:51.807Z,5.75
2024-02-21T08:55:20.314Z,6.22
2024-02-21T08:57:50.142Z,6.63
2024-02-21T09:00:19.195Z,5.85
2024-02-21T09:02:47.859Z,5.50
2024-02-21T09:05:16.716Z,6.10
2024-02-21T09:07:45.455Z,5.32
2024-02-21T09:10:13.878Z,5.93
2024-02-21T09:12:42.469Z,7.05
2024-02-21T09:15:13.074Z,6.00
2024-02-21T09:17:41.594Z,4.70
2024-02-21T09:20:13.210Z,4.82
2024-02-21T09:22:42.517Z,5.03
2024-02-21T09:25:12.823Z,5.05
2024-02-21T09:27:42.438Z,5.68
2024-02-21T09:30:12.780Z,4.95
2024-02-21T09:32:41.444Z,4.15
2024-02-21T09:35:11.442Z,4.63
2024-02-21T09:37:40.060Z,4.10
2024-02-21T09:40:09.086Z,5.30
2024-02-21T09:42:40.070Z,3.83
2024-02-21T09:45:10.832Z,4.38
2024-02-21T09:47:46.849Z,4.40
2024-02-21T09:50:16.497Z,4.38
2024-02-21T09:52:46.309Z,4.15
2024-02-21T09:55:15.515Z,4.68
2024-02-21T09:57:44.497Z,4.32
2024-02-21T10:00:13.911Z,4.60
2024-02-21T10:02:43.694Z,4.45
2024-02-21T10:05:12.229Z,4.25
2024-02-21T10:07:41.161Z,3.75
2024-02-21T10:10:10.298Z,4.50
2024-02-21T10:12:38.694Z,4.10
2024-02-21T10:15:07.986Z,3.85
2024-02-21T10:17:37.541Z,4.50
2024-02-21T10:20:15.527Z,4.03
2024-02-21T10:22:44.036Z,4.10
2024-02-21T10:25:12.812Z,4.50
2024-02-21T10:27:42.393Z,3.88
2024-02-21T10:30:15.801Z,3.35
2024-02-21T10:32:51.947Z,3.83
2024-02-21T10:35:30.571Z,3.83
2024-02-21T10:37:59.548Z,3.53
2024-02-21T10:40:28.904Z,3.78
2024-02-21T10:43:01.112Z,3.97
2024-02-21T10:45:32.820Z,3.78
2024-02-21T10:48:09.077Z,3.70
2024-02-21T10:50:42.091Z,4.25
2024-02-21T10:53:13.698Z,3.90
2024-02-21T10:55:44.777Z,3.97
2024-02-21T10:58:13.871Z,3.83
2024-02-21T11:00:43.924Z,3.58
2024-02-21T11:03:14.266Z,3.70
2024-02-21T11:05:46.595Z,3.63
2024-02-21T11:08:15.521Z,3.95
2024-02-21T11:10:48.820Z,2.75
2024-02-21T11:13:17.491Z,3.25
2024-02-21T11:15:48.741Z,3.83
2024-02-21T11:18:25.981Z,3.58
2024-02-21T11:20:55.883Z,3.35
2024-02-21T11:23:28.118Z,3.78
2024-02-21T11:26:07.072Z,3.53
2024-02-21T11:28:36.422Z,3.13
2024-02-21T11:31:11.539Z,2.78
2024-02-21T11:33:42.936Z,3.63
2024-02-21T11:36:12.897Z,3.40
2024-02-21T11:38:41.359Z,2.97
2024-02-21T11:41:13.580Z,3.50
2024-02-21T11:43:42.863Z,3.10
2024-02-21T11:46:11.273Z,2.63
2024-02-21T11:48:39.873Z,2.95
2024-02-21T11:51:12.560Z,3.00
2024-02-21T11:53:50.766Z,2.70
2024-02-21T11:56:27.114Z,2.95
2024-02-21T11:58:55.636Z,2.95
2024-02-21T12:01:24.325Z,2.47
2024-02-21T12:03:52.833Z,2.65
2024-02-21T12:06:23.402Z,2.30
2024-02-21T12:08:55.403Z,2.40
2024-02-21T12:11:24.333Z,2.60
2024-02-21T12:14:04.907Z,1.88
2024-02-21T12:16:33.692Z,2.40
2024-02-21T12:19:03.801Z,2.20
2024-02-21T12:21:34.055Z,2.28
2024-02-21T12:24:13.977Z,2.08
2024-02-21T12:26:42.595Z,2.40
2024-02-21T12:29:11.342Z,2.83
2024-02-21T12:31:40.107Z,2.22
2024-02-21T12:34:11.051Z,2.42
2024-02-21T12:36:43.992Z,2.58
2024-02-21T12:39:13.990Z,2.40
2024-02-21T12:41:44.259Z,2.30
2024-02-21T12:44:13.739Z,2.28
2024-02-21T12:46:42.679Z,2.70
2024-02-21T12:49:11.316Z,2.10
2024-02-21T12:51:40.731Z,2.33
2024-02-21T12:54:12.239Z,2.53
2024-02-21T12:56:42.485Z,1.83
2024-02-21T12:59:11.247Z,2.38
2024-02-21T13:01:40.070Z,2.53
2024-02-21T13:04:08.801Z,2.30
2024-02-21T13:06:38.185Z,2.65
2024-02-21T13:09:09.162Z,2.78
2024-02-21T13:11:39.087Z,2.95
2024-02-21T13:14:08.973Z,2.60
2024-02-21T13:16:40.764Z,2.95
2024-02-21T13:19:09.917Z,3.00
2024-02-21T13:21:38.572Z,2.85
2024-02-21T13:24:07.314Z,2.97
2024-02-21T13:26:35.733Z,2.72
2024-02-21T13:29:04.373Z,3.47
2024-02-21T13:31:34.359Z,2.30
2024-02-21T13:34:02.993Z,2.55
2024-02-21T13:36:31.566Z,2.35
2024-02-21T13:38:59.999Z,2.47
2024-02-21T13:41:28.871Z,2.75
2024-02-21T13:43:57.346Z,2.45
2024-02-21T13:46:25.745Z,3.55
2024-02-21T13:48:55.623Z,2.47
2024-02-21T13:51:24.041Z,3.17
2024-02-21T13:53:52.476Z,3.08
2024-02-21T13:56:20.968Z,3.00
2024-02-21T13:58:49.406Z,2.75
2024-02-21T14:01:17.881Z,2.88
2024-02-21T14:03:46.316Z,3.17
2024-02-21T14:06:16.245Z,3.13
2024-02-21T14:08:44.786Z,3.08
2024-02-21T14:11:13.318Z,2.50
2024-02-21T14:13:41.787Z,3.38
2024-02-21T14:16:14.152Z,2.97
2024-02-21T14:18:43.434Z,2.28
2024-02-21T14:21:12.749Z,2.90
2024-02-21T14:23:42.582Z,3.47
2024-02-21T14:26:11.071Z,2.70
2024-02-21T14:28:39.679Z,3.00
2024-02-21T14:31:10.163Z,3.13
2024-02-21T14:33:38.737Z,2.90
2024-02-21T14:36:08.718Z,3.30
2024-02-21T14:38:37.396Z,3.35
2024-02-21T14:41:07.614Z,3.88
2024-02-21T14:43:36.516Z,3.20
2024-02-21T14:46:05.599Z,4.15
2024-02-21T14:48:34.137Z,3.42
2024-02-21T14:51:02.657Z,3.63
2024-02-21T14:53:31.969Z,3.72
2024-02-21T14:56:00.582Z,3.20
2024-02-21T14:58:32.587Z,2.85
2024-02-21T15:01:01.163Z,3.65
2024-02-21T15:03:31.253Z,3.42
2024-02-21T15:05:59.802Z,3.47
2024-02-21T15:08:29.366Z,3.03
2024-02-21T15:10:57.955Z,3.22
2024-02-21T15:13:26.456Z,3.42
2024-02-21T15:15:56.263Z,4.05
2024-02-21T15:18:25.150Z,5.00
2024-02-21T15:20:54.314Z,3.70
2024-02-21T15:23:24.628Z,3.70
2024-02-21T15:25:53.060Z,2.90
2024-02-21T15:28:21.610Z,3.88
2024-02-21T15:30:50.042Z,3.00
2024-02-21T15:33:19.932Z,3.75
2024-02-21T15:35:49.153Z,3.70
2024-02-21T15:38:17.657Z,4.25
2024-02-21T15:40:46.139Z,3.63
2024-02-21T15:43:14.601Z,3.40
2024-02-21T15:45:42.988Z,2.95
2024-02-21T15:48:11.521Z,3.50
2024-02-21T15:50:41.364Z,4.18
2024-02-21T15:53:12.062Z,4.03
2024-02-21T15:55:40.598Z,3.42
2024-02-21T15:58:09.042Z,3.55
2024-02-21T16:00:37.464Z,3.88
2024-02-21T16:03:06.124Z,3.22
2024-02-21T16:05:34.690Z,3.63
2024-02-21T16:08:05.059Z,3.38
2024-02-21T16:10:33.800Z,3.53
2024-02-21T16:13:02.386Z,2.60
2024-02-21T16:15:32.101Z,3.20
2024-02-21T16:18:00.612Z,3.17
2024-02-21T16:20:29.443Z,3.53
2024-02-21T16:23:00.698Z,3.58
2024-02-21T16:25:30.621Z,3.15
2024-02-21T16:27:59.331Z,3.03
2024-02-21T16:30:27.761Z,3.40
2024-02-21T16:32:56.211Z,2.95
2024-02-21T16:35:24.754Z,3.83
2024-02-21T16:37:53.345Z,3.63
2024-02-21T16:40:21.877Z,3.80
2024-02-21T16:42:51.747Z,4.10
2024-02-21T16:45:21.889Z,3.78
2024-02-21T16:47:50.372Z,3.95
2024-02-21T16:50:19.328Z,3.38
2024-02-21T16:52:48.418Z,3.50
2024-02-21T16:55:17.538Z,3.78
2024-02-21T16:57:46.042Z,4.10
2024-02-21T17:00:16.273Z,3.80
2024-02-21T17:02:52.377Z,3.80
2024-02-21T17:05:27.823Z,3.45
2024-02-21T17:07:57.094Z,3.00
2024-02-21T17:10:25.677Z,4.88
2024-02-21T17:12:54.194Z,3.80
2024-02-21T17:15:24.026Z,3.58
2024-02-21T17:17:52.529Z,3.95
2024-02-21T17:20:21.003Z,3.42
2024-02-21T17:22:49.502Z,3.60
2024-02-21T17:25:18.061Z,3.92
2024-02-21T17:27:46.704Z,3.35
2024-02-21T17:30:15.406Z,3.50
2024-02-21T17:32:45.305Z,3.50
2024-02-21T17:35:14.201Z,3.63
2024-02-21T17:37:42.727Z,3.83
2024-02-21T17:40:11.460Z,3.38
2024-02-21T17:42:39.996Z,2.70
2024-02-21T17:45:09.196Z,3.53
2024-02-21T17:47:37.830Z,3.10
2024-02-21T17:50:08.710Z,3.40
2024-02-21T17:52:37.371Z,3.30
2024-02-21T17:55:06.762Z,3.78
2024-02-21T17:57:35.321Z,3.30
2024-02-21T18:00:04.013Z,3.35
2024-02-21T18:02:32.466Z,3.50
2024-02-21T18:05:01.074Z,4.07
2024-02-21T18:07:31.096Z,3.70
2024-02-21T18:09:59.648Z,3.00
2024-02-21T18:12:28.095Z,3.10
2024-02-21T18:14:59.096Z,3.75
2024-02-21T18:17:29.111Z,2.83
2024-02-21T18:19:57.580Z,2.70
2024-02-21T18:22:26.058Z,2.15
2024-02-21T18:24:55.908Z,3.10
2024-02-21T18:27:25.085Z,2.97
2024-02-21T18:29:53.819Z,2.63
2024-02-21T18:32:22.392Z,2.75
2024-02-21T18:34:51.016Z,2.20
2024-02-21T18:37:19.590Z,2.53
2024-02-21T18:39:48.291Z,2.50
2024-02-21T18:42:18.099Z,2.20
2024-02-21T18:44:47.196Z,1.73
2024-02-21T18:47:15.746Z,2.10
2024-02-21T18:49:45.200Z,1.90
2024-02-21T18:52:13.784Z,2.50
2024-02-21T18:54:43.575Z,1.50
2024-02-21T18:57:12.445Z,2.30
2024-02-21T18:59:42.243Z,2.13
2024-02-21T19:02:10.824Z,2.28
2024-02-21T19:04:39.815Z,2.70
2024-02-21T19:07:08.536Z,2.20
2024-02-21T19:09:37.313Z,2.40
2024-02-21T19:12:06.079Z,1.92
2024-02-21T19:14:34.619Z,2.33
2024-02-21T19:17:04.455Z,2.58
2024-02-21T19:19:35.182Z,2.50
2024-02-21T19:22:05.869Z,2.50
2024-02-21T19:24:34.321Z,2.50
2024-02-21T19:27:03.460Z,2.17
2024-02-21T19:29:31.907Z,2.28
2024-02-21T19:32:00.422Z,2.03
2024-02-21T19:34:30.536Z,1.95
2024-02-21T19:36:59.169Z,2.22
2024-02-21T19:39:27.834Z,2.13
2024-02-21T19:41:56.352Z,2.22
2024-02-21T19:44:24.881Z,2.10
2024-02-21T19:46:53.930Z,1.65
2024-02-21T19:49:22.570Z,2.10
2024-02-21T19:51:52.443Z,1.73
2024-02-21T19:54:24.982Z,2.03
2024-02-21T19:56:54.098Z,1.58
2024-02-21T19:59:22.579Z,1.70
2024-02-21T20:01:52.027Z,1.75
2024-02-21T20:04:20.648Z,1.70
2024-02-21T20:06:49.163Z,1.67
2024-02-21T20:09:19.040Z,1.67
2024-02-21T20:11:47.745Z,1.63
2024-02-21T20:14:18.095Z,1.70
2024-02-21T20:16:50.384Z,1.48
2024-02-21T20:19:19.051Z,1.63
2024-02-21T20:21:48.208Z,1.25
2024-02-21T20:24:27.997Z,1.55
2024-02-21T20:27:05.698Z,1.45
2024-02-21T20:29:34.159Z,1.65
2024-02-21T20:32:03.100Z,1.40
2024-02-21T20:34:32.677Z,1.50
2024-02-21T20:37:01.496Z,1.20
2024-02-21T20:39:31.683Z,1.38
2024-02-21T20:42:00.447Z,1.15
2024-02-21T20:44:30.315Z,1.08
2024-02-21T20:46:58.946Z,1.27
2024-02-21T20:49:30.071Z,1.30
2024-02-21T20:51:59.891Z,1.30
2024-02-21T20:54:28.335Z,1.10
2024-02-21T20:56:59.212Z,0.60
2024-02-21T20:59:28.020Z,1.30
2024-02-21T21:02:02.889Z,1.30
2024-02-21T21:04:33.088Z,1.00
2024-02-21T21:07:02.433Z,1.20
2024-02-21T21:09:30.955Z,1.02
2024-02-21T21:11:59.433Z,1.33
2024-02-21T21:14:29.360Z,1.00
2024-02-21T21:16:59.288Z,1.00
2024-02-21T21:19:29.116Z,0.93
2024-02-21T21:21:59.995Z,1.10
2024-02-21T21:24:30.234Z,1.13
2024-02-21T21:26:58.807Z,1.20
2024-02-21T21:29:27.320Z,1.10
2024-02-21T21:31:55.807Z,1.27
2024-02-21T21:34:25.735Z,1.20
2024-02-21T21:36:54.269Z,1.20
2024-02-21T21:39:23.026Z,1.15
2024-02-21T21:41:51.502Z,1.50
2024-02-21T21:44:19.995Z,1.42
2024-02-21T21:46:48.980Z,1.40
2024-02-21T21:49:17.838Z,1.48
2024-02-21T21:51:47.757Z,1.27
2024-02-21T21:54:16.214Z,1.70
2024-02-21T21:56:44.671Z,1.50
2024-02-21T21:59:13.358Z,1.20
2024-02-21T22:01:41.997Z,1.38
2024-02-21T22:04:10.537Z,1.45
2024-02-21T22:06:40.443Z,1.33
2024-02-21T22:09:10.489Z,1.38
2024-02-21T22:11:39.953Z,1.25
2024-02-21T22:14:10.066Z,1.50
2024-02-21T22:16:38.728Z,1.20
2024-02-21T22:19:07.270Z,1.38
2024-02-21T22:21:35.823Z,1.40
2024-02-21T22:24:04.290Z,1.55
2024-02-21T22:26:34.185Z,1.50
2024-02-21T22:29:02.709Z,1.30
2024-02-21T22:31:31.172Z,1.48
2024-02-21T22:33:59.707Z,1.60
2024-02-21T22:36:28.334Z,1.75
2024-02-21T22:38:56.793Z,1.42
2024-02-21T22:41:25.486Z,2.00
2024-02-21T22:43:55.388Z,1.73
2024-02-21T22:46:24.154Z,2.05
2024-02-21T22:48:53.402Z,1.83
2024-02-21T22:51:21.897Z,1.92
2024-02-21T22:53:50.319Z,1.75
2024-02-21T22:56:18.809Z,2.00
2024-02-21T22:58:47.296Z,2.33
2024-02-21T23:01:18.472Z,2.90
2024-02-21T23:03:47.292Z,2.20
2024-02-21T23:06:16.109Z,2.25
2024-02-21T23:08:44.542Z,2.88
2024-02-21T23:11:13.371Z,2.53
2024-02-21T23:13:41.948Z,2.25
2024-02-21T23:16:10.856Z,2.80
2024-02-21T23:18:40.662Z,3.40
2024-02-21T23:21:12.892Z,2.97
2024-02-21T23:23:41.330Z,2.92
2024-02-21T23:26:11.759Z,3.30
2024-02-21T23:28:44.155Z,3.13
2024-02-21T23:31:12.802Z,3.30
2024-02-21T23:33:42.780Z,3.08
2024-02-21T23:36:11.733Z,4.18
2024-02-21T23:38:40.200Z,3.13
2024-02-21T23:41:08.696Z,3.70
2024-02-21T23:43:42.700Z,3.17
2024-02-21T23:46:11.331Z,3.65
2024-02-21T23:48:39.843Z,4.32
2024-02-21T23:51:10.673Z,3.47
2024-02-21T23:53:39.308Z,3.95
2024-02-21T23:56:09.760Z,5.07
2024-02-21T23:58:39.268Z,4.38
